Time;durP1;ratioP1;P1;durP2;ratioP2;P2;SDS_P1;SDS_P2;PMS_P1;PMS_P2;Temp;Humidity;BMP_temperature;BMP_pressure;BME280_temperature;BME280_humidity;BME280_pressure;Samples;Min_cycle;Max_cycle;Signal;HPM_P1;HPM_P2
2024/03/13 00:01:53;;;;;;;13.07;7.88;;;;;;;;;;5069566;28;20021;-80
2024/03/13 00:04:19;;;;;;;12.18;7.68;;;;;;;;;;5069549;28;20025;-79
2024/03/13 00:06:46;;;;;;;8.98;6.00;;;;;;;;;;5059420;28;20501;-80
2024/03/13 00:09:16;;;;;;;11.10;5.85;;;;;;;;;;5061828;28;20020;-81
2024/03/13 00:11:42;;;;;;;10.35;6.18;;;;;;;;;;5057838;28;20493;-80
2024/03/13 00:14:09;;;;;;;7.90;4.90;;;;;;;;;;5058557;28;20045;-81
2024/03/13 00:16:35;;;;;;;8.32;5.43;;;;;;;;;;5057461;28;20071;-80
2024/03/13 00:19:03;;;;;;;8.38;5.80;;;;;;;;;;5057209;28;20039;-81
2024/03/13 00:21:35;;;;;;;9.05;6.07;;;;;;;;;;5066154;28;20028;-80
2024/03/13 00:24:02;;;;;;;6.97;4.65;;;;;;;;;;5067242;28;20078;-80
2024/03/13 00:26:28;;;;;;;8.02;5.25;;;;;;;;;;5073292;28;20060;-79
2024/03/13 00:28:54;;;;;;;7.45;4.82;;;;;;;;;;5056302;28;20052;-79
2024/03/13 00:31:20;;;;;;;9.88;6.20;;;;;;;;;;5066082;28;20447;-79
2024/03/13 00:33:46;;;;;;;9.55;6.20;;;;;;;;;;5064552;28;20060;-81
2024/03/13 00:36:12;;;;;;;9.85;6.55;;;;;;;;;;5066068;28;20032;-80
2024/03/13 00:38:38;;;;;;;10.52;6.82;;;;;;;;;;5063685;28;20024;-79
2024/03/13 00:41:04;;;;;;;11.45;7.07;;;;;;;;;;5065809;28;20048;-81
2024/03/13 00:43:31;;;;;;;12.98;7.75;;;;;;;;;;5064776;28;20041;-79
2024/03/13 00:45:59;;;;;;;13.40;7.63;;;;;;;;;;5048298;28;20440;-79
2024/03/13 00:48:31;;;;;;;11.05;7.20;;;;;;;;;;5064128;28;20029;-79
2024/03/13 00:50:57;;;;;;;12.98;7.32;;;;;;;;;;5066159;28;20089;-81
2024/03/13 00:53:23;;;;;;;11.80;8.60;;;;;;;;;;5062068;28;20029;-79
2024/03/13 00:55:49;;;;;;;15.07;8.65;;;;;;;;;;5066128;28;20029;-79
2024/03/13 00:58:16;;;;;;;12.73;7.75;;;;;;;;;;5061804;28;20032;-80
2024/03/13 01:00:42;;;;;;;12.98;7.47;;;;;;;;;;5067471;28;20017;-79
2024/03/13 01:03:09;;;;;;;12.77;8.18;;;;;;;;;;5061145;28;20025;-80
2024/03/13 01:05:35;;;;;;;12.18;7.57;;;;;;;;;;5051312;28;20112;-80
2024/03/13 01:08:02;;;;;;;15.82;8.68;;;;;;;;;;5053800;28;20025;-81
2024/03/13 01:10:28;;;;;;;14.10;8.30;;;;;;;;;;5052784;28;20071;-81
2024/03/13 01:12:54;;;;;;;13.90;8.43;;;;;;;;;;5052770;28;20052;-80
2024/03/13 01:15:20;;;;;;;14.88;8.10;;;;;;;;;;5052989;28;20036;-79
2024/03/13 01:17:47;;;;;;;16.05;8.18;;;;;;;;;;5054760;28;20019;-80
2024/03/13 01:20:18;;;;;;;15.02;8.55;;;;;;;;;;5054618;28;20079;-81
2024/03/13 01:22:47;;;;;;;14.98;7.85;;;;;;;;;;5056853;28;20020;-81
2024/03/13 01:25:13;;;;;;;13.38;8.65;;;;;;;;;;5072144;28;20024;-80
2024/03/13 01:27:41;;;;;;;16.58;8.32;;;;;;;;;;5071454;28;20021;-79
2024/03/13 01:30:08;;;;;;;13.82;8.35;;;;;;;;;;5060858;28;20386;-81
2024/03/13 01:32:35;;;;;;;15.07;7.70;;;;;;;;;;5054234;28;20032;-81
2024/03/13 01:35:01;;;;;;;17.17;8.77;;;;;;;;;;5065596;28;20033;-80
2024/03/13 01:40:19;;;;;;;15.88;8.88;;;;;;;;;;5041835;28;20403;-80
2024/03/13 01:57:00;;;;;;;13.80;7.63;;;;;;;;;;5053723;28;20036;-81
2024/03/13 01:59:37;;;;;;;12.35;7.00;;;;;;;;;;5052313;28;20021;-81
2024/03/13 02:04:48;;;;;;;10.95;7.43;;;;;;;;;;5053970;28;20032;-81
2024/03/13 02:07:14;;;;;;;13.13;6.97;;;;;;;;;;5053860;28;20489;-81
2024/03/13 02:09:40;;;;;;;13.50;7.32;;;;;;;;;;5052407;28;20505;-82
2024/03/13 02:12:13;;;;;;;11.13;7.00;;;;;;;;;;5051994;28;20029;-81
2024/03/13 02:14:39;;;;;;;11.45;7.00;;;;;;;;;;5062040;28;20478;-81
2024/03/13 02:17:06;;;;;;;13.68;7.68;;;;;;;;;;5070193;28;20021;-80
2024/03/13 02:19:34;;;;;;;13.05;8.68;;;;;;;;;;5071321;28;20020;-81
2024/03/13 02:22:01;;;;;;;15.90;8.93;;;;;;;;;;5053863;28;20021;-80
2024/03/13 02:24:27;;;;;;;14.00;8.07;;;;;;;;;;5058804;28;20028;-81
2024/03/13 02:26:53;;;;;;;11.02;6.60;;;;;;;;;;5064174;28;20481;-81
2024/03/13 02:29:19;;;;;;;10.13;6.35;;;;;;;;;;5061915;28;20029;-81
2024/03/13 02:31:46;;;;;;;8.90;6.00;;;;;;;;;;5067172;28;20381;-81
2024/03/13 02:34:13;;;;;;;9.98;6.53;;;;;;;;;;5070811;28;20119;-81
2024/03/13 02:36:39;;;;;;;11.25;6.72;;;;;;;;;;5066932;28;20020;-81
2024/03/13 02:39:05;;;;;;;11.60;7.13;;;;;;;;;;5069153;28;20032;-81
2024/03/13 02:41:31;;;;;;;9.25;6.25;;;;;;;;;;5067386;28;20044;-81
2024/03/13 02:43:58;;;;;;;9.90;6.10;;;;;;;;;;5069527;28;20055;-80
2024/03/13 02:46:25;;;;;;;11.30;6.97;;;;;;;;;;5068870;28;20029;-80
2024/03/13 02:48:51;;;;;;;8.05;5.78;;;;;;;;;;5069086;28;20028;-81
2024/03/13 02:51:17;;;;;;;8.90;6.43;;;;;;;;;;5067329;28;20036;-81
2024/03/13 02:53:43;;;;;;;6.40;5.03;;;;;;;;;;5069294;28;20119;-80
2024/03/13 02:56:09;;;;;;;8.02;5.22;;;;;;;;;;5069508;28;20158;-81
2024/03/13 02:58:35;;;;;;;6.93;5.72;;;;;;;;;;5069813;28;20021;-80
2024/03/13 03:01:02;;;;;;;8.00;6.07;;;;;;;;;;5068691;28;20019;-80
2024/03/13 03:03:30;;;;;;;10.15;6.07;;;;;;;;;;5069623;28;20388;-81
2024/03/13 03:06:01;;;;;;;8.02;5.97;;;;;;;;;;5068557;28;20170;-81
2024/03/13 03:08:27;;;;;;;6.68;5.25;;;;;;;;;;5068595;28;20078;-81
2024/03/13 03:10:54;;;;;;;8.40;5.82;;;;;;;;;;5054205;28;20032;-81
2024/03/13 03:13:20;;;;;;;6.82;5.43;;;;;;;;;;5055067;28;20390;-80
2024/03/13 03:15:48;;;;;;;7.53;5.47;;;;;;;;;;5052224;28;20024;-80
2024/03/13 03:18:17;;;;;;;10.48;7.25;;;;;;;;;;5050978;28;20059;-80
2024/03/13 03:20:45;;;;;;;6.88;5.60;;;;;;;;;;5038265;28;20473;-80
2024/03/13 03:23:11;;;;;;;6.72;5.90;;;;;;;;;;5052531;28;20029;-80
2024/03/13 03:25:37;;;;;;;7.22;5.60;;;;;;;;;;5065070;28;20022;-79
2024/03/13 03:28:04;;;;;;;8.05;6.07;;;;;;;;;;5058783;28;20117;-80
2024/03/13 03:30:30;;;;;;;8.13;6.45;;;;;;;;;;5066654;28;20086;-80
2024/03/13 03:32:56;;;;;;;9.55;7.38;;;;;;;;;;5067512;28;20024;-81
2024/03/13 03:35:27;;;;;;;8.50;6.03;;;;;;;;;;5056754;28;20036;-81
2024/03/13 03:37:53;;;;;;;6.68;4.88;;;;;;;;;;5055890;28;20028;-80
2024/03/13 03:40:19;;;;;;;6.03;5.22;;;;;;;;;;5056493;28;20017;-80
2024/03/13 03:42:48;;;;;;;7.15;5.53;;;;;;;;;;5065060;28;20024;-80
2024/03/13 03:45:16;;;;;;;5.80;4.95;;;;;;;;;;5064673;28;20053;-81
2024/03/13 03:47:42;;;;;;;6.20;4.50;;;;;;;;;;5057756;28;20028;-80
2024/03/13 03:50:08;;;;;;;7.70;5.20;;;;;;;;;;5061370;28;20479;-80
2024/03/13 03:52:34;;;;;;;5.53;4.80;;;;;;;;;;5064061;28;20490;-81
2024/03/13 03:55:03;;;;;;;6.28;5.63;;;;;;;;;;5054412;28;20039;-80
2024/03/13 03:57:29;;;;;;;10.40;6.70;;;;;;;;;;5056645;28;20013;-80
2024/03/13 03:59:55;;;;;;;8.55;5.68;;;;;;;;;;5058247;28;20116;-81
2024/03/13 04:02:21;;;;;;;8.35;5.07;;;;;;;;;;5064214;28;20482;-80
2024/03/13 04:04:48;;;;;;;11.23;6.72;;;;;;;;;;5056933;28;20052;-82
2024/03/13 04:07:14;;;;;;;8.30;6.07;;;;;;;;;;5058088;28;20028;-81
2024/03/13 04:09:40;;;;;;;12.43;8.07;;;;;;;;;;5058386;28;20383;-80
2024/03/13 04:12:06;;;;;;;10.93;7.50;;;;;;;;;;5061720;28;20477;-80
2024/03/13 04:14:35;;;;;;;8.68;6.65;;;;;;;;;;5055116;28;20037;-80
2024/03/13 04:17:02;;;;;;;8.35;6.35;;;;;;;;;;5056126;28;20029;-80
2024/03/13 04:19:28;;;;;;;6.32;5.43;;;;;;;;;;5074967;28;20020;-80
2024/03/13 04:21:54;;;;;;;6.20;5.00;;;;;;;;;;5072844;28;20025;-81
2024/03/13 04:24:20;;;;;;;9.07;6.20;;;;;;;;;;5072452;28;20024;-80
2024/03/13 04:26:46;;;;;;;11.35;6.85;;;;;;;;;;5060795;28;20029;-80
2024/03/13 04:29:12;;;;;;;9.38;7.40;;;;;;;;;;5073740;28;20047;-81
2024/03/13 04:31:40;;;;;;;8.30;6.65;;;;;;;;;;5062975;28;20031;-81
2024/03/13 04:34:09;;;;;;;7.80;6.30;;;;;;;;;;5062785;28;20036;-81
2024/03/13 04:36:41;;;;;;;9.70;6.53;;;;;;;;;;5061534;28;20498;-80
2024/03/13 04:39:07;;;;;;;9.35;6.53;;;;;;;;;;5055391;28;20080;-81
2024/03/13 04:41:33;;;;;;;10.85;7.00;;;;;;;;;;5056155;28;20123;-80
2024/03/13 04:44:00;;;;;;;12.88;7.13;;;;;;;;;;5055039;28;20103;-80
2024/03/13 04:46:26;;;;;;;10.13;6.47;;;;;;;;;;5063639;28;20032;-81
2024/03/13 04:48:52;;;;;;;9.80;6.45;;;;;;;;;;5066141;28;20082;-81
2024/03/13 04:51:18;;;;;;;8.35;5.88;;;;;;;;;;5072568;28;20025;-80
2024/03/13 04:53:45;;;;;;;10.02;7.00;;;;;;;;;;5063898;28;20466;-81
2024/03/13 04:56:11;;;;;;;9.43;7.03;;;;;;;;;;5054846;28;20424;-81
2024/03/13 04:58:38;;;;;;;13.25;8.57;;;;;;;;;;5064143;28;20027;-81
2024/03/13 05:01:04;;;;;;;11.60;8.15;;;;;;;;;;5060120;28;20067;-80
2024/03/13 05:03:33;;;;;;;11.10;7.68;;;;;;;;;;5063686;28;20505;-80
2024/03/13 05:06:00;;;;;;;23.48;12.70;;;;;;;;;;5055152;28;20020;-80
2024/03/13 05:08:26;;;;;;;24.05;13.40;;;;;;;;;;5071728;28;20099;-80
2024/03/13 05:10:52;;;;;;;15.20;10.98;;;;;;;;;;5050784;28;20020;-80
2024/03/13 05:13:18;;;;;;;12.55;8.55;;;;;;;;;;5052689;28;20686;-80
2024/03/13 05:15:45;;;;;;;12.00;8.38;;;;;;;;;;5058036;28;20014;-80
2024/03/13 05:18:12;;;;;;;10.57;7.35;;;;;;;;;;5060541;28;20016;-81
2024/03/13 05:20:38;;;;;;;12.68;9.40;;;;;;;;;;5055319;28;20033;-80
2024/03/13 05:23:06;;;;;;;11.20;8.48;;;;;;;;;;5064273;28;20558;-80
2024/03/13 05:25:32;;;;;;;13.75;9.35;;;;;;;;;;5057572;28;20363;-80
2024/03/13 05:27:58;;;;;;;9.85;7.80;;;;;;;;;;5056560;28;20024;-80
2024/03/13 05:30:24;;;;;;;9.55;5.95;;;;;;;;;;5056252;28;20117;-79
2024/03/13 05:32:51;;;;;;;8.65;6.80;;;;;;;;;;5056653;28;20375;-81
2024/03/13 05:35:17;;;;;;;7.93;6.28;;;;;;;;;;5045526;28;20502;-81
2024/03/13 05:37:43;;;;;;;7.35;5.68;;;;;;;;;;5063009;28;20063;-79
2024/03/13 05:40:28;;;;;;;7.03;5.32;;;;;;;;;;5058838;28;20021;-79
2024/03/13 05:42:54;;;;;;;7.40;6.28;;;;;;;;;;5066745;28;20025;-80
2024/03/13 05:45:20;;;;;;;7.97;6.18;;;;;;;;;;5058958;28;20136;-79
2024/03/13 05:47:46;;;;;;;7.00;5.88;;;;;;;;;;5067031;28;20096;-81
2024/03/13 05:50:12;;;;;;;11.23;6.50;;;;;;;;;;5067558;28;20032;-80
2024/03/13 05:52:38;;;;;;;9.85;7.45;;;;;;;;;;5064359;28;20021;-81
2024/03/13 05:55:05;;;;;;;10.30;6.97;;;;;;;;;;5066834;28;20086;-81
2024/03/13 05:57:31;;;;;;;10.93;7.20;;;;;;;;;;5066052;28;20474;-81
2024/03/13 05:59:57;;;;;;;11.80;7.93;;;;;;;;;;5061633;28;20029;-81
2024/03/13 06:02:23;;;;;;;12.63;7.40;;;;;;;;;;5063836;28;20043;-80
2024/03/13 06:04:50;;;;;;;12.10;6.68;;;;;;;;;;5052793;28;20025;-80
2024/03/13 06:07:16;;;;;;;12.10;7.95;;;;;;;;;;5042559;28;20521;-80
2024/03/13 06:09:42;;;;;;;12.23;7.32;;;;;;;;;;5053936;28;20043;-81
2024/03/13 06:12:08;;;;;;;13.93;9.27;;;;;;;;;;5063114;28;20482;-82
2024/03/13 06:14:34;;;;;;;11.73;8.65;;;;;;;;;;5051569;28;20059;-80
2024/03/13 06:17:00;;;;;;;13.35;9.43;;;;;;;;;;5052409;28;20356;-79
2024/03/13 06:19:26;;;;;;;12.25;8.25;;;;;;;;;;5059024;28;20024;-80
2024/03/13 06:21:53;;;;;;;14.30;8.70;;;;;;;;;;5059034;28;20383;-81
2024/03/13 06:24:32;;;;;;;12.90;8.68;;;;;;;;;;5058586;28;20025;-81
2024/03/13 06:27:00;;;;;;;16.45;9.18;;;;;;;;;;5047720;28;20028;-81
2024/03/13 06:32:11;;;;;;;13.05;8.77;;;;;;;;;;5056671;28;20394;-81
2024/03/13 06:34:38;;;;;;;13.80;8.57;;;;;;;;;;5053315;28;20033;-81
2024/03/13 06:37:05;;;;;;;12.52;8.15;;;;;;;;;;5058139;28;20024;-81
2024/03/13 06:39:31;;;;;;;12.02;8.25;;;;;;;;;;5060531;28;20029;-80
2024/03/13 06:41:57;;;;;;;11.38;7.25;;;;;;;;;;5061340;28;20021;-81
2024/03/13 06:44:24;;;;;;;14.00;8.73;;;;;;;;;;5050900;28;20049;-82
2024/03/13 06:46:53;;;;;;;10.45;7.45;;;;;;;;;;5058706;28;20480;-81
2024/03/13 06:49:19;;;;;;;11.70;7.38;;;;;;;;;;5053177;28;20034;-82
2024/03/13 06:51:45;;;;;;;11.45;7.18;;;;;;;;;;5052384;28;20025;-81
2024/03/13 06:54:11;;;;;;;11.05;8.27;;;;;;;;;;5053203;28;20033;-81
2024/03/13 06:56:37;;;;;;;12.00;7.85;;;;;;;;;;5052665;28;20025;-81
2024/03/13 06:59:03;;;;;;;12.93;8.75;;;;;;;;;;5052652;28;20025;-81
2024/03/13 07:01:29;;;;;;;13.98;8.98;;;;;;;;;;5049992;28;20367;-80
2024/03/13 07:03:56;;;;;;;14.70;9.50;;;;;;;;;;5045717;28;20028;-81
2024/03/13 07:06:22;;;;;;;11.43;6.93;;;;;;;;;;5056614;28;20029;-81
2024/03/13 07:08:48;;;;;;;12.38;8.07;;;;;;;;;;5051462;28;20413;-81
2024/03/13 07:11:14;;;;;;;13.38;8.82;;;;;;;;;;5055819;28;20040;-81
2024/03/13 07:13:40;;;;;;;11.35;8.05;;;;;;;;;;5053724;28;20368;-82
2024/03/13 07:16:06;;;;;;;12.98;8.18;;;;;;;;;;5045223;28;20024;-82
2024/03/13 07:18:32;;;;;;;15.63;8.88;;;;;;;;;;5054013;28;20021;-81
2024/03/13 07:20:59;;;;;;;15.15;9.82;;;;;;;;;;5057319;28;20044;-81
2024/03/13 07:23:26;;;;;;;15.48;9.48;;;;;;;;;;5057345;28;20021;-80
2024/03/13 07:25:56;;;;;;;14.70;10.20;;;;;;;;;;5055252;28;20478;-81
2024/03/13 07:28:22;;;;;;;15.73;10.88;;;;;;;;;;5048792;28;20024;-81
2024/03/13 07:30:48;;;;;;;19.60;11.40;;;;;;;;;;5060858;28;20040;-82
2024/03/13 07:33:15;;;;;;;22.65;12.65;;;;;;;;;;5061158;28;20104;-82
2024/03/13 07:35:44;;;;;;;20.02;12.65;;;;;;;;;;5040383;28;20071;-82
2024/03/13 07:38:10;;;;;;;18.33;11.98;;;;;;;;;;5061324;28;20522;-82
2024/03/13 07:40:37;;;;;;;16.08;11.43;;;;;;;;;;5053418;28;20043;-82
2024/03/13 07:43:05;;;;;;;22.90;12.88;;;;;;;;;;5052548;28;20036;-82
2024/03/13 07:45:31;;;;;;;17.48;11.57;;;;;;;;;;5055013;28;20133;-82
2024/03/13 07:47:57;;;;;;;20.70;12.40;;;;;;;;;;5070080;28;20107;-82
2024/03/13 07:50:23;;;;;;;20.15;13.10;;;;;;;;;;5071024;28;20035;-82
2024/03/13 07:52:49;;;;;;;21.40;14.30;;;;;;;;;;5063622;28;20082;-82
2024/03/13 07:55:17;;;;;;;22.83;13.80;;;;;;;;;;5066766;28;20032;-82
2024/03/13 07:57:43;;;;;;;27.42;13.50;;;;;;;;;;5066231;28;20025;-82
2024/03/13 08:00:11;;;;;;;21.55;13.15;;;;;;;;;;5064800;28;20021;-82
2024/03/13 08:02:37;;;;;;;20.60;12.90;;;;;;;;;;5036545;28;20029;-82
2024/03/13 08:05:03;;;;;;;25.17;14.00;;;;;;;;;;5036301;28;20018;-82
2024/03/13 08:07:31;;;;;;;20.52;12.77;;;;;;;;;;5035659;28;20028;-82
2024/03/13 08:09:57;;;;;;;20.88;13.73;;;;;;;;;;5042746;28;20030;-82
2024/03/13 08:12:23;;;;;;;22.60;13.95;;;;;;;;;;5053924;28;20025;-82
2024/03/13 08:14:49;;;;;;;25.88;14.88;;;;;;;;;;5065928;28;20075;-82
2024/03/13 08:17:16;;;;;;;22.52;14.35;;;;;;;;;;5067162;28;20078;-82
2024/03/13 08:19:42;;;;;;;26.95;15.57;;;;;;;;;;5062713;28;20404;-83
2024/03/13 08:22:08;;;;;;;27.90;15.50;;;;;;;;;;5056931;28;20025;-83
2024/03/13 08:24:34;;;;;;;30.23;17.05;;;;;;;;;;5057034;28;20029;-82
2024/03/13 08:27:00;;;;;;;30.63;17.17;;;;;;;;;;5059863;28;20083;-83
2024/03/13 08:29:26;;;;;;;30.90;17.13;;;;;;;;;;5064329;28;20405;-83
2024/03/13 08:31:52;;;;;;;31.25;16.52;;;;;;;;;;5055921;28;20021;-86
2024/03/13 08:34:18;;;;;;;38.67;16.65;;;;;;;;;;5066961;28;20033;-84
2024/03/13 08:36:44;;;;;;;46.45;19.30;;;;;;;;;;5066522;28;20094;-87
2024/03/13 08:39:12;;;;;;;43.80;18.35;;;;;;;;;;5070698;28;20021;-88
2024/03/13 08:51:22;;;;;;;44.05;20.27;;;;;;;;;;5019081;28;20391;-85
2024/03/13 08:53:48;;;;;;;48.22;20.52;;;;;;;;;;5052649;28;20512;-82
2024/03/13 08:56:14;;;;;;;40.67;19.73;;;;;;;;;;5056009;28;20113;-80
2024/03/13 08:58:44;;;;;;;49.60;21.15;;;;;;;;;;5056823;28;20025;-80
2024/03/13 09:01:10;;;;;;;48.70;21.38;;;;;;;;;;5059997;28;20090;-83
2024/03/13 09:03:36;;;;;;;47.13;20.58;;;;;;;;;;5057658;28;20430;-80
2024/03/13 09:06:07;;;;;;;49.08;21.42;;;;;;;;;;5054671;28;20097;-82
2024/03/13 09:08:33;;;;;;;50.00;21.70;;;;;;;;;;5053102;28;20020;-81
2024/03/13 09:11:00;;;;;;;49.35;22.23;;;;;;;;;;5055163;28;20028;-82
2024/03/13 09:13:26;;;;;;;43.28;18.85;;;;;;;;;;5053409;28;20025;-81
2024/03/13 09:15:52;;;;;;;46.70;20.73;;;;;;;;;;5067451;28;20043;-81
2024/03/13 09:18:18;;;;;;;43.65;20.13;;;;;;;;;;5054324;28;20029;-79
2024/03/13 09:20:44;;;;;;;43.13;19.38;;;;;;;;;;5061495;28;20024;-81
2024/03/13 09:23:11;;;;;;;55.88;22.60;;;;;;;;;;5072202;28;20025;-81
2024/03/13 09:25:37;;;;;;;50.22;21.33;;;;;;;;;;5072128;28;20379;-81
2024/03/13 09:28:03;;;;;;;44.15;19.55;;;;;;;;;;5067072;28;20028;-81
2024/03/13 09:30:29;;;;;;;52.03;19.52;;;;;;;;;;5058976;28;20062;-81
2024/03/13 09:32:59;;;;;;;47.00;20.27;;;;;;;;;;5053462;28;20071;-82
2024/03/13 09:35:25;;;;;;;46.20;20.38;;;;;;;;;;5053454;28;20061;-81
2024/03/13 09:37:52;;;;;;;48.53;19.38;;;;;;;;;;5064498;28;20040;-80
2024/03/13 09:40:19;;;;;;;36.92;17.85;;;;;;;;;;5062967;28;20041;-82
2024/03/13 09:42:46;;;;;;;42.00;19.70;;;;;;;;;;5065863;28;20461;-82
2024/03/13 09:45:16;;;;;;;39.15;19.02;;;;;;;;;;5056715;28;20040;-81
2024/03/13 09:47:43;;;;;;;34.67;18.40;;;;;;;;;;5068713;28;20017;-82
2024/03/13 09:50:12;;;;;;;37.67;18.30;;;;;;;;;;5065701;28;20032;-81
2024/03/13 09:52:39;;;;;;;42.15;20.45;;;;;;;;;;5067885;28;20021;-82
2024/03/13 09:55:13;;;;;;;48.03;21.58;;;;;;;;;;5064854;28;20028;-81
2024/03/13 09:57:39;;;;;;;58.10;24.23;;;;;;;;;;5062557;28;20032;-83
2024/03/13 10:00:18;;;;;;;53.05;23.30;;;;;;;;;;5066251;28;20117;-85
2024/03/13 10:02:45;;;;;;;57.70;23.77;;;;;;;;;;5070978;28;20043;-84
2024/03/13 10:05:12;;;;;;;57.13;24.73;;;;;;;;;;5068518;28;20096;-80
2024/03/13 10:07:39;;;;;;;56.88;24.38;;;;;;;;;;5070701;28;20078;-83
2024/03/13 10:10:18;;;;;;;61.55;26.05;;;;;;;;;;5059937;28;20449;-82
2024/03/13 10:12:44;;;;;;;52.90;24.98;;;;;;;;;;5056903;28;20053;-80
2024/03/13 10:15:13;;;;;;;53.83;25.00;;;;;;;;;;5065729;28;20036;-80
2024/03/13 10:17:41;;;;;;;51.83;22.17;;;;;;;;;;5064124;28;20017;-84
2024/03/13 10:20:14;;;;;;;55.42;25.58;;;;;;;;;;5066192;28;20383;-81
2024/03/13 10:22:40;;;;;;;;;;;;;;;;;;5068892;28;20031;-83
2024/03/13 10:25:09;;;;;;;58.38;23.23;;;;;;;;;;5067020;28;20684;-83
2024/03/13 10:27:38;;;;;;;62.75;26.77;;;;;;;;;;5047890;28;20028;-80
2024/03/13 10:30:04;;;;;;;64.38;26.42;;;;;;;;;;5056235;28;20025;-81
2024/03/13 10:32:31;;;;;;;61.53;26.45;;;;;;;;;;5051184;28;20029;-81
2024/03/13 10:34:59;;;;;;;68.72;27.33;;;;;;;;;;5057491;28;20091;-85
2024/03/13 10:37:25;;;;;;;67.78;27.45;;;;;;;;;;5045620;28;20490;-80
2024/03/13 10:39:51;;;;;;;64.72;26.42;;;;;;;;;;5052208;28;20052;-80
2024/03/13 10:42:17;;;;;;;89.35;31.30;;;;;;;;;;5048677;28;20489;-83
2024/03/13 10:44:44;;;;;;;66.85;27.70;;;;;;;;;;5054507;28;20053;-81
2024/03/13 10:47:12;;;;;;;80.38;28.83;;;;;;;;;;5053638;28;20386;-82
2024/03/13 10:49:41;;;;;;;74.47;30.17;;;;;;;;;;5060602;28;20592;-83
2024/03/13 10:52:12;;;;;;;70.85;29.83;;;;;;;;;;5056750;28;20031;-80
2024/03/13 10:54:38;;;;;;;77.93;29.60;;;;;;;;;;5057513;28;20052;-80
2024/03/13 10:57:04;;;;;;;71.10;27.17;;;;;;;;;;5057787;28;20541;-80
2024/03/13 10:59:30;;;;;;;73.88;28.95;;;;;;;;;;5056193;28;20359;-84
2024/03/13 11:01:57;;;;;;;81.60;32.75;;;;;;;;;;5052488;28;20025;-81
2024/03/13 11:04:26;;;;;;;80.93;32.90;;;;;;;;;;5052277;28;20055;-84
2024/03/13 11:06:53;;;;;;;70.97;30.65;;;;;;;;;;5058923;28;20083;-84
2024/03/13 11:09:22;;;;;;;76.90;32.03;;;;;;;;;;5053796;28;20025;-83
2024/03/13 11:11:51;;;;;;;78.00;32.65;;;;;;;;;;5058632;28;20009;-83
2024/03/13 11:14:20;;;;;;;82.78;33.20;;;;;;;;;;5050064;28;20033;-84
2024/03/13 11:16:49;;;;;;;77.38;32.03;;;;;;;;;;5049221;28;20059;-83
2024/03/13 11:19:16;;;;;;;78.90;30.50;;;;;;;;;;5065394;28;20024;-83
2024/03/13 11:21:57;;;;;;;67.82;30.92;;;;;;;;;;5064337;28;20025;-83
2024/03/13 11:24:28;;;;;;;71.82;29.60;;;;;;;;;;5052262;28;20501;-82
2024/03/13 11:26:56;;;;;;;75.32;29.80;;;;;;;;;;5055471;28;20418;-83
2024/03/13 11:29:27;;;;;;;68.50;30.90;;;;;;;;;;5051105;28;20532;-83
2024/03/13 11:31:53;;;;;;;71.45;29.75;;;;;;;;;;5052210;28;20017;-86
2024/03/13 11:34:21;;;;;;;55.53;26.52;;;;;;;;;;5051092;28;20095;-85
2024/03/13 11:36:48;;;;;;;57.47;24.02;;;;;;;;;;5061164;28;20155;-84
2024/03/13 11:39:15;;;;;;;56.17;25.98;;;;;;;;;;5054007;28;20032;-83
2024/03/13 11:41:43;;;;;;;56.42;26.63;;;;;;;;;;5055222;28;20052;-83
2024/03/13 11:44:09;;;;;;;54.90;23.10;;;;;;;;;;5056944;28;20021;-83
2024/03/13 11:46:48;;;;;;;49.08;23.73;;;;;;;;;;5054464;28;20045;-85
2024/03/13 11:49:15;;;;;;;59.45;24.92;;;;;;;;;;5057587;28;20016;-83
2024/03/13 11:52:00;;;;;;;42.80;21.17;;;;;;;;;;5058096;28;20021;-83
2024/03/13 11:54:33;;;;;;;60.30;25.20;;;;;;;;;;5057042;28;20037;-84
2024/03/13 11:57:05;;;;;;;49.97;24.02;;;;;;;;;;5058093;28;20025;-83
2024/03/13 11:59:41;;;;;;;49.92;23.55;;;;;;;;;;5062057;28;20052;-82
2024/03/13 12:02:26;;;;;;;50.35;25.05;;;;;;;;;;5063184;28;20096;-82
2024/03/13 12:04:52;;;;;;;45.47;20.55;;;;;;;;;;5061127;28;20032;-82
2024/03/13 12:07:18;;;;;;;45.83;23.60;;;;;;;;;;5068381;28;20429;-84
2024/03/13 12:09:44;;;;;;;39.60;20.23;;;;;;;;;;5070801;28;20028;-85
2024/03/13 12:12:14;;;;;;;41.15;22.73;;;;;;;;;;5067364;28;20025;-84
2024/03/13 12:14:40;;;;;;;41.65;21.65;;;;;;;;;;5055682;28;20037;-82
2024/03/13 12:17:11;;;;;;;42.63;22.92;;;;;;;;;;5059772;28;20044;-83
2024/03/13 12:19:37;;;;;;;40.90;21.27;;;;;;;;;;5060123;28;20040;-83
2024/03/13 12:22:03;;;;;;;40.00;18.95;;;;;;;;;;5061889;28;20025;-84
2024/03/13 12:24:29;;;;;;;38.25;20.45;;;;;;;;;;5060961;28;20027;-85
2024/03/13 12:26:56;;;;;;;38.60;20.58;;;;;;;;;;5058416;28;20459;-83
2024/03/13 12:29:23;;;;;;;36.00;19.10;;;;;;;;;;5056952;28;20028;-84
2024/03/13 12:31:50;;;;;;;44.95;24.00;;;;;;;;;;5056471;28;20025;-83
2024/03/13 12:34:18;;;;;;;38.85;20.83;;;;;;;;;;5060229;28;20036;-85
